Time;durP1;ratioP1;P1;durP2;ratioP2;P2;SDS_P1;SDS_P2;PMS_P1;PMS_P2;Temp;Humidity;BMP_temperature;BMP_pressure;BME280_temperature;BME280_humidity;BME280_pressure;Samples;Min_cycle;Max_cycle;Signal;HPM_P1;HPM_P2
2023/08/20 08:48:10;;;;;;;5.75;3.00;;;;;;;20.78;100.00;102076.69;5069616;28;20374;-66
2023/08/20 08:50:36;;;;;;;8.30;2.50;;;;;;;20.89;100.00;102082.00;5068371;28;20467;-69
2023/08/20 08:53:02;;;;;;;5.05;2.45;;;;;;;20.93;100.00;102085.03;5068028;28;20087;-68
2023/08/20 08:55:27;;;;;;;6.43;2.70;;;;;;;21.00;100.00;102082.03;5069048;28;20434;-69
2023/08/20 08:57:52;;;;;;;8.95;3.25;;;;;;;21.10;100.00;102082.09;5061493;28;20029;-69
2023/08/20 09:00:18;;;;;;;9.60;2.83;;;;;;;21.13;99.67;102089.00;5049470;28;20113;-69
2023/08/20 09:02:43;;;;;;;5.65;2.40;;;;;;;21.25;82.41;102084.13;5047228;28;20028;-68
2023/08/20 09:05:08;;;;;;;4.90;2.55;;;;;;;21.36;81.92;102091.34;5055607;28;20021;-69
2023/08/20 09:07:34;;;;;;;7.07;2.13;;;;;;;21.58;89.61;102095.88;5049567;28;20060;-68
2023/08/20 09:10:00;;;;;;;5.45;2.15;;;;;;;21.53;76.42;102091.19;5049664;28;20539;-67
2023/08/20 09:12:26;;;;;;;4.65;1.80;;;;;;;21.64;74.75;102089.28;5051072;28;20052;-69
2023/08/20 09:14:52;;;;;;;6.10;2.20;;;;;;;21.61;72.81;102092.59;5064993;28;20021;-68
2023/08/20 09:17:19;;;;;;;6.18;2.35;;;;;;;21.74;77.83;102092.09;5069564;28;20025;-67
2023/08/20 09:19:46;;;;;;;4.88;1.92;;;;;;;21.85;82.07;102092.94;5069232;28;20067;-67
2023/08/20 09:22:15;;;;;;;5.75;1.73;;;;;;;21.90;72.30;102095.69;5069385;28;20033;-68
2023/08/20 09:24:52;;;;;;;5.25;1.67;;;;;;;21.87;76.23;102092.66;5063591;28;20077;-67
2023/08/20 09:27:18;;;;;;;2.40;1.40;;;;;;;21.92;68.11;102081.66;5048910;28;20112;-68
2023/08/20 09:29:51;;;;;;;3.53;1.20;;;;;;;22.19;69.28;102088.88;5049031;28;20108;-68
2023/08/20 09:32:19;;;;;;;3.47;1.50;;;;;;;22.16;63.48;102094.94;5048485;28;20063;-66
2023/08/20 09:34:45;;;;;;;4.00;1.38;;;;;;;22.24;64.96;102094.41;5051649;28;20063;-70
2023/08/20 09:37:12;;;;;;;5.07;1.67;;;;;;;22.13;66.22;102099.06;5067801;28;20071;-66
2023/08/20 09:39:38;;;;;;;4.05;1.30;;;;;;;22.19;64.59;102094.38;5068431;28;20032;-69
2023/08/20 09:42:05;;;;;;;3.28;1.25;;;;;;;22.29;65.84;102097.97;5068920;28;20418;-66
2023/08/20 09:44:44;;;;;;;4.78;1.42;;;;;;;22.31;68.33;102100.50;5067520;28;20474;-66
2023/08/20 09:47:15;;;;;;;2.47;0.98;;;;;;;22.38;66.88;102092.78;5066483;28;20074;-66
2023/08/20 09:49:46;;;;;;;3.75;1.50;;;;;;;22.55;64.96;102102.72;5061478;28;20032;-67
2023/08/20 09:52:20;;;;;;;3.03;1.10;;;;;;;22.55;66.18;102100.78;5068750;28;20059;-67
2023/08/20 09:54:58;;;;;;;2.47;1.20;;;;;;;22.60;65.01;102092.53;5068378;28;20024;-67
2023/08/20 09:57:31;;;;;;;2.92;0.90;;;;;;;22.54;62.29;102095.53;5058452;28;20025;-69
2023/08/20 09:59:58;;;;;;;2.58;0.95;;;;;;;22.54;59.05;102095.53;5054125;28;20039;-68
2023/08/20 10:02:25;;;;;;;3.17;0.80;;;;;;;22.55;58.10;102099.97;5052995;28;20025;-66
2023/08/20 10:04:52;;;;;;;3.33;0.85;;;;;;;22.71;59.24;102095.28;5036660;28;20025;-70
2023/08/20 10:07:18;;;;;;;2.67;0.90;;;;;;;22.75;59.28;102099.13;5055159;28;20029;-67
2023/08/20 10:09:46;;;;;;;2.22;1.02;;;;;;;22.82;61.53;102089.47;5054974;28;20096;-69
2023/08/20 10:12:13;;;;;;;1.77;0.73;;;;;;;22.96;62.04;102099.94;5055200;28;20029;-71
2023/08/20 10:14:39;;;;;;;2.67;0.88;;;;;;;22.98;60.02;102092.22;5054612;28;20407;-68
2023/08/20 10:17:11;;;;;;;1.55;0.70;;;;;;;23.11;59.00;102102.69;5055307;28;20025;-69
2023/08/20 10:19:38;;;;;;;1.95;0.70;;;;;;;23.15;56.44;102102.97;5042141;28;20029;-67
2023/08/20 10:22:04;;;;;;;2.00;0.80;;;;;;;23.08;56.04;102097.69;5049994;28;20029;-67
2023/08/20 10:24:50;;;;;;;1.63;0.68;;;;;;;23.14;56.56;102101.31;5041920;28;20057;-68
2023/08/20 10:27:36;;;;;;;2.53;0.88;;;;;;;23.19;56.16;102093.03;5051857;28;20119;-68
2023/08/20 10:30:07;;;;;;;5.03;1.00;;;;;;;23.16;56.96;102088.88;5053581;28;20453;-65
2023/08/20 10:32:50;;;;;;;5.80;1.10;;;;;;;23.40;60.25;102093.78;5054771;28;20091;-66
2023/08/20 10:35:29;;;;;;;1.80;0.77;;;;;;;23.48;55.75;102095.13;5054758;28;20098;-66
2023/08/20 10:38:04;;;;;;;2.25;0.90;;;;;;;23.59;55.94;102091.22;5053369;28;20017;-66
2023/08/20 10:40:47;;;;;;;3.15;0.70;;;;;;;23.67;57.26;102089.78;5042594;28;20155;-66
2023/08/20 10:43:31;;;;;;;3.03;1.00;;;;;;;23.71;55.11;102090.88;5034336;28;20104;-67
2023/08/20 10:46:09;;;;;;;3.63;1.10;;;;;;;23.63;53.81;102085.97;5034135;28;20025;-67
2023/08/20 10:48:36;;;;;;;2.60;1.00;;;;;;;23.62;53.15;102100.88;5040289;28;20131;-66
2023/08/20 10:51:37;;;;;;;3.75;1.15;;;;;;;23.70;53.09;102098.34;5039114;28;20087;-67
2023/08/20 10:54:07;;;;;;;2.50;0.77;;;;;;;23.68;51.70;102089.50;5053126;28;20033;-66
2023/08/20 10:56:43;;;;;;;6.22;1.20;;;;;;;23.87;51.97;102097.19;5053583;28;20049;-67
2023/08/20 10:59:09;;;;;;;5.47;1.27;;;;;;;23.97;51.06;102101.81;5038705;28;20168;-66
2023/08/20 11:01:35;;;;;;;3.42;1.00;;;;;;;24.04;50.45;102102.34;5045901;28;20032;-66
2023/08/20 11:04:04;;;;;;;2.63;1.10;;;;;;;24.16;49.87;102093.69;5039063;28;20480;-70
2023/08/20 11:06:34;;;;;;;3.20;1.10;;;;;;;24.23;50.79;102091.41;5046938;28;20436;-65
2023/08/20 11:09:03;;;;;;;2.45;1.00;;;;;;;24.28;49.44;102098.84;5053615;28;20025;-66
2023/08/20 11:11:28;;;;;;;2.75;1.20;;;;;;;24.27;46.94;102088.91;5053386;28;20025;-66
2023/08/20 11:13:53;;;;;;;2.92;1.00;;;;;;;24.36;48.46;102089.94;5043602;28;20465;-65
2023/08/20 11:16:19;;;;;;;2.58;0.90;;;;;;;24.57;49.45;102093.38;5037555;28;20135;-66
2023/08/20 11:18:44;;;;;;;6.28;1.10;;;;;;;24.62;49.01;102089.75;5033740;28;20029;-67
2023/08/20 11:21:10;;;;;;;3.10;1.00;;;;;;;24.41;48.66;102090.75;5034207;28;20108;-64
2023/08/20 11:23:35;;;;;;;3.25;1.10;;;;;;;24.49;49.79;102092.06;5033840;28;20129;-69
2023/08/20 11:26:02;;;;;;;2.63;0.93;;;;;;;24.50;48.98;102084.56;5033545;28;20034;-68
2023/08/20 11:28:28;;;;;;;2.28;1.00;;;;;;;24.58;50.11;102084.81;5033842;28;20029;-67
2023/08/20 11:30:55;;;;;;;4.18;1.02;;;;;;;24.73;51.34;102080.22;5033859;28;20029;-67
2023/08/20 11:33:21;;;;;;;3.33;1.10;;;;;;;24.83;51.04;102080.13;5052071;28;20102;-67
2023/08/20 11:35:46;;;;;;;3.70;1.02;;;;;;;24.93;48.43;102082.81;5050681;28;20017;-66
2023/08/20 11:38:13;;;;;;;3.35;1.02;;;;;;;24.92;49.49;102075.63;5051797;28;20423;-67
2023/08/20 11:40:39;;;;;;;2.30;1.00;;;;;;;25.04;50.41;102082.72;5053815;28;20357;-66
2023/08/20 11:43:05;;;;;;;4.50;0.90;;;;;;;25.06;49.69;102074.91;5053032;28;20087;-66
2023/08/20 11:45:32;;;;;;;3.45;1.00;;;;;;;24.91;48.38;102065.69;5053122;28;20021;-67
2023/08/20 11:47:58;;;;;;;5.05;1.50;;;;;;;25.03;49.17;102072.75;5034252;28;20045;-67
2023/08/20 11:50:23;;;;;;;2.65;0.90;;;;;;;25.05;48.69;102067.75;5037831;28;20058;-67
2023/08/20 11:52:51;;;;;;;5.75;0.98;;;;;;;25.13;48.53;102061.56;5041557;28;20120;-66
2023/08/20 11:55:23;;;;;;;3.80;1.17;;;;;;;25.14;48.88;102057.66;5036315;28;20041;-66
2023/08/20 11:57:52;;;;;;;4.22;1.10;;;;;;;25.15;48.62;102056.53;5040965;28;20112;-68
2023/08/20 12:00:36;;;;;;;4.57;0.85;;;;;;;25.30;49.21;102050.00;5031233;28;20041;-66
2023/08/20 12:03:01;;;;;;;4.10;1.35;;;;;;;25.28;49.03;102041.97;5033319;28;20033;-66
2023/08/20 12:05:27;;;;;;;5.50;1.50;;;;;;;25.37;48.40;102039.41;5033117;28;20344;-66
2023/08/20 12:07:58;;;;;;;3.25;1.20;;;;;;;25.36;48.27;102031.38;5032927;28;20025;-66
2023/08/20 12:10:24;;;;;;;3.15;1.02;;;;;;;25.37;48.17;102024.75;5034483;28;20028;-66
2023/08/20 12:12:51;;;;;;;4.90;1.50;;;;;;;25.49;48.14;102027.88;5041561;28;20052;-67
2023/08/20 12:15:18;;;;;;;4.40;1.10;;;;;;;25.44;47.72;102034.31;5032956;28;20061;-67
2023/08/20 12:17:44;;;;;;;3.53;1.20;;;;;;;25.60;48.57;102020.25;5032517;28;20475;-68
2023/08/20 12:20:12;;;;;;;4.10;1.23;;;;;;;25.80;49.01;102025.50;5041311;28;20029;-66
2023/08/20 12:22:40;;;;;;;3.40;1.13;;;;;;;25.88;48.42;102032.31;5052478;28;20028;-68
2023/08/20 12:25:06;;;;;;;4.82;1.30;;;;;;;26.09;50.05;102027.31;5052259;28;20029;-67
2023/08/20 12:27:32;;;;;;;4.65;1.15;;;;;;;26.07;47.59;102026.78;5050597;28;20047;-66
2023/08/20 12:29:57;;;;;;;5.40;1.40;;;;;;;25.98;46.89;102026.66;5052229;28;20029;-67
2023/08/20 12:32:22;;;;;;;5.03;1.20;;;;;;;26.08;47.33;102022.88;5052672;28;20021;-66
2023/08/20 12:34:48;;;;;;;3.97;1.27;;;;;;;26.15;46.33;102025.28;5050808;28;20056;-66
2023/08/20 12:37:13;;;;;;;4.93;1.08;;;;;;;26.33;47.09;102021.63;5052842;28;20056;-67
2023/08/20 12:39:38;;;;;;;3.25;1.10;;;;;;;26.16;46.10;102027.75;5052522;28;20104;-67
2023/08/20 12:42:04;;;;;;;3.28;1.13;;;;;;;26.08;45.83;102022.06;5048893;28;20440;-68
2023/08/20 12:44:29;;;;;;;3.90;1.45;;;;;;;26.19;45.63;102020.75;5046108;28;20031;-66
2023/08/20 12:46:54;;;;;;;5.05;1.20;;;;;;;26.26;45.98;102032.28;5052187;28;20485;-66
2023/08/20 12:49:20;;;;;;;6.70;1.45;;;;;;;26.40;46.25;102034.28;5052225;28;20025;-66
2023/08/20 12:51:45;;;;;;;4.95;1.30;;;;;;;26.46;46.01;102027.53;5052269;28;20017;-68
2023/08/20 12:54:11;;;;;;;3.78;1.10;;;;;;;26.41;45.50;102028.44;5052675;28;20079;-67
2023/08/20 12:56:36;;;;;;;4.40;1.38;;;;;;;26.50;45.58;102034.13;5052424;28;20051;-66
2023/08/20 12:59:02;;;;;;;3.47;1.27;;;;;;;26.44;45.70;102033.38;5041981;28;20052;-67
2023/08/20 13:01:28;;;;;;;3.47;1.40;;;;;;;26.42;45.27;102030.09;5030187;28;20028;-67
2023/08/20 13:03:53;;;;;;;5.25;1.52;;;;;;;26.50;45.68;102032.16;5036360;28;20072;-66
2023/08/20 13:06:19;;;;;;;7.45;1.42;;;;;;;26.49;45.09;102027.72;5052271;28;20021;-67
2023/08/20 13:08:45;;;;;;;5.25;1.50;;;;;;;26.47;45.55;102030.00;5052560;28;20036;-67
2023/08/20 13:11:16;;;;;;;6.30;1.40;;;;;;;26.48;45.84;102034.44;5052340;28;20094;-67
2023/08/20 13:13:46;;;;;;;4.60;1.50;;;;;;;26.49;45.80;102029.69;5043491;28;20061;-67
2023/08/20 13:16:12;;;;;;;6.32;1.48;;;;;;;26.66;46.95;102029.97;5045939;28;20122;-67
2023/08/20 13:18:37;;;;;;;2.72;1.17;;;;;;;26.67;45.76;102034.38;5052474;28;20512;-67
2023/08/20 13:21:03;;;;;;;7.05;1.50;;;;;;;26.67;45.33;102026.03;5052229;28;20036;-67
2023/08/20 13:23:29;;;;;;;3.83;0.90;;;;;;;26.88;46.13;102025.66;5052122;28;20025;-68
2023/08/20 13:25:54;;;;;;;4.65;1.17;;;;;;;26.85;45.84;102017.94;5044344;28;20154;-67
2023/08/20 13:28:20;;;;;;;5.18;1.40;;;;;;;26.94;45.89;102021.66;5032531;28;20029;-67
2023/08/20 13:30:45;;;;;;;3.35;1.20;;;;;;;26.90;45.13;102023.38;5032233;28;20449;-66
2023/08/20 13:33:11;;;;;;;5.63;1.35;;;;;;;26.91;45.01;102027.00;5032837;28;20490;-66
2023/08/20 13:35:37;;;;;;;5.63;1.40;;;;;;;26.95;45.61;102016.91;5035973;28;20032;-66
2023/08/20 13:38:04;;;;;;;4.70;1.50;;;;;;;27.04;45.41;102023.41;5035925;28;20022;-67
2023/08/20 13:40:29;;;;;;;5.35;1.50;;;;;;;27.08;44.61;102012.50;5035882;28;20032;-69
2023/08/20 13:42:55;;;;;;;3.95;1.30;;;;;;;27.18;44.38;102023.41;5035580;28;20021;-68
2023/08/20 13:45:20;;;;;;;4.53;1.30;;;;;;;27.35;45.91;102022.78;5035126;28;20033;-69
2023/08/20 13:47:45;;;;;;;3.78;1.48;;;;;;;27.37;44.10;102021.34;5043624;28;20047;-67
2023/08/20 13:50:10;;;;;;;3.30;1.35;;;;;;;27.48;44.95;102029.44;5055377;28;20021;-68
2023/08/20 13:52:36;;;;;;;5.60;1.58;;;;;;;27.46;44.11;102026.16;5055674;28;20103;-69
2023/08/20 13:55:03;;;;;;;4.45;1.35;;;;;;;27.72;44.82;102027.25;5055285;28;20102;-68
2023/08/20 13:57:29;;;;;;;5.88;1.38;;;;;;;27.66;43.06;102022.94;5055471;28;20060;-67
2023/08/20 13:59:54;;;;;;;5.72;1.55;;;;;;;27.55;43.79;102018.72;5054926;28;20483;-67
2023/08/20 14:02:20;;;;;;;4.32;1.15;;;;;;;27.67;44.15;102023.75;5053339;28;20021;-67
2023/08/20 14:04:45;;;;;;;3.03;1.27;;;;;;;27.82;42.60;102026.16;5055527;28;20029;-67
2023/08/20 14:07:11;;;;;;;4.85;1.35;;;;;;;27.72;43.45;102015.28;5055023;28;20056;-67
2023/08/20 14:09:36;;;;;;;3.33;1.20;;;;;;;27.80;43.83;102017.31;5044419;28;20033;-67
2023/08/20 14:12:01;;;;;;;6.15;1.58;;;;;;;27.96;43.67;102014.16;5035346;28;20331;-67
2023/08/20 14:14:27;;;;;;;3.75;1.20;;;;;;;28.03;43.31;102009.03;5038206;28;20474;-67
2023/08/20 14:16:52;;;;;;;4.18;1.42;;;;;;;28.05;43.46;102013.13;5054874;28;20032;-67
2023/08/20 14:19:17;;;;;;;3.38;1.30;;;;;;;28.08;42.72;102006.94;5049477;28;20040;-67
2023/08/20 14:21:43;;;;;;;4.45;1.30;;;;;;;28.06;42.65;102011.16;5055205;28;20021;-67
2023/08/20 14:24:08;;;;;;;5.38;1.63;;;;;;;27.96;42.96;102006.69;5054400;28;20024;-67
2023/08/20 14:26:33;;;;;;;6.70;1.40;;;;;;;27.87;42.86;102019.66;5054582;28;20025;-67
2023/08/20 14:28:59;;;;;;;4.30;1.17;;;;;;;27.67;43.08;102019.00;5054684;28;20145;-68
2023/08/20 14:31:24;;;;;;;4.78;1.23;;;;;;;27.35;43.54;102018.03;5049465;28;20036;-69
2023/08/20 14:33:50;;;;;;;3.47;1.20;;;;;;;27.13;44.66;102015.16;5047245;28;20079;-68
2023/08/20 14:36:15;;;;;;;5.50;1.80;;;;;;;27.00;45.19;102012.06;5036548;28;20031;-66
2023/08/20 14:38:40;;;;;;;5.75;1.40;;;;;;;26.84;45.21;102013.50;5034524;28;20031;-66
2023/08/20 14:41:05;;;;;;;5.47;1.48;;;;;;;26.72;46.18;102013.19;5034811;28;20029;-69
2023/08/20 14:43:32;;;;;;;7.65;1.70;;;;;;;26.67;46.14;102014.94;5034682;28;20033;-70
2023/08/20 14:45:58;;;;;;;5.72;1.60;;;;;;;26.61;46.76;102010.59;5034033;28;20108;-69
2023/08/20 14:48:24;;;;;;;2.72;1.10;;;;;;;26.52;48.03;101998.53;5034678;28;20071;-69
2023/08/20 14:50:50;;;;;;;4.13;1.50;;;;;;;26.43;46.66;102000.38;5034319;28;20022;-68
2023/08/20 14:53:17;;;;;;;3.55;1.20;;;;;;;26.35;47.61;102002.72;5034268;28;20075;-68
2023/08/20 14:55:43;;;;;;;5.60;1.33;;;;;;;26.71;46.44;102001.28;5034158;28;20108;-68
2023/08/20 14:58:08;;;;;;;6.13;1.27;;;;;;;27.51;45.95;101998.28;5034348;28;20421;-69
2023/08/20 15:00:33;;;;;;;6.13;1.30;;;;;;;27.94;45.42;101995.00;5030646;28;20033;-68
2023/08/20 15:02:59;;;;;;;5.30;1.58;;;;;;;27.76;43.97;101999.59;5034452;28;20299;-66
2023/08/20 15:05:24;;;;;;;3.33;1.20;;;;;;;27.48;45.13;101998.88;5034022;28;20025;-68
2023/08/20 15:07:50;;;;;;;6.75;1.58;;;;;;;27.13;44.78;101998.47;5034150;28;20018;-66
2023/08/20 15:10:15;;;;;;;4.97;1.33;;;;;;;26.91;46.14;101994.50;5033999;28;20025;-68
2023/08/20 15:12:41;;;;;;;3.70;1.40;;;;;;;26.75;47.00;101996.75;5032943;28;20110;-68
2023/08/20 15:15:10;;;;;;;3.40;1.48;;;;;;;26.58;46.27;102005.66;5033037;28;20032;-67
2023/08/20 15:17:36;;;;;;;3.70;1.10;;;;;;;26.47;46.97;101998.66;5052256;28;20037;-69
2023/08/20 15:20:05;;;;;;;3.72;1.40;;;;;;;26.35;49.74;101997.16;5053965;28;20475;-69
2023/08/20 15:22:30;;;;;;;4.53;1.73;;;;;;;26.21;49.17;101995.47;5051508;28;20053;-70
2023/08/20 15:24:55;;;;;;;3.38;1.48;;;;;;;26.18;51.15;102003.31;5041798;28;20051;-66
2023/08/20 15:27:23;;;;;;;5.53;1.55;;;;;;;26.05;52.96;102004.06;5053702;28;20060;-68
2023/08/20 15:29:48;;;;;;;4.53;1.35;;;;;;;25.99;51.76;101995.00;5041656;28;20025;-69
2023/08/20 15:32:14;;;;;;;5.15;1.38;;;;;;;25.91;52.92;101995.69;5033252;28;20078;-68
2023/08/20 15:34:39;;;;;;;6.15;2.00;;;;;;;25.92;52.19;101989.00;5043348;28;20120;-70
2023/08/20 15:37:04;;;;;;;7.95;1.63;;;;;;;25.94;53.16;101997.03;5050875;28;20044;-69
2023/08/20 15:39:33;;;;;;;6.32;2.30;;;;;;;25.88;53.58;101992.66;5053555;28;20020;-69
2023/08/20 15:41:59;;;;;;;5.07;1.70;;;;;;;25.85;53.15;101996.88;5053192;28;20456;-69
2023/08/20 15:44:24;;;;;;;3.35;1.20;;;;;;;25.95;51.98;101991.19;5053417;28;20031;-67
2023/08/20 15:46:49;;;;;;;4.53;1.33;;;;;;;25.97;53.58;101985.34;5056992;28;20037;-69
2023/08/20 15:49:15;;;;;;;3.88;2.00;;;;;;;26.01;54.01;101986.38;5052088;28;20025;-67
2023/08/20 15:51:40;;;;;;;5.75;1.80;;;;;;;25.98;53.57;101987.81;5053310;28;20108;-70
2023/08/20 15:54:05;;;;;;;4.97;1.98;;;;;;;25.99;53.77;101983.09;5040708;28;20025;-67
2023/08/20 15:56:31;;;;;;;9.50;2.60;;;;;;;25.98;55.26;101982.28;5032782;28;20026;-70
2023/08/20 15:58:56;;;;;;;4.47;1.70;;;;;;;26.09;54.23;101977.38;5032885;28;20108;-67
2023/08/20 16:01:21;;;;;;;6.60;3.00;;;;;;;26.46;53.26;101975.59;5030819;28;20017;-66
2023/08/20 16:03:47;;;;;;;5.80;2.10;;;;;;;26.74;52.36;101969.28;5042589;28;20431;-68
